createdAt,value
2019-04-04T00:00:37.649Z,62.30
2019-04-04T00:03:07.507Z,62.30
2019-04-04T00:05:37.363Z,62.30
2019-04-04T00:08:08.332Z,62.30
2019-04-04T00:10:38.201Z,62.50
2019-04-04T00:13:10.873Z,62.50
2019-04-04T00:15:45.368Z,62.50
2019-04-04T00:18:13.950Z,62.50
2019-04-04T00:20:43.805Z,62.50
2019-04-04T00:23:13.603Z,62.50
2019-04-04T00:25:43.399Z,62.70
2019-04-04T00:28:14.879Z,62.70
2019-04-04T00:30:44.760Z,62.50
2019-04-04T00:33:14.571Z,62.60
2019-04-04T00:35:44.506Z,63.40
2019-04-04T00:38:14.304Z,62.60
2019-04-04T00:40:45.188Z,62.60
2019-04-04T00:43:14.968Z,62.70
2019-04-04T00:45:45.862Z,62.70
2019-04-04T00:48:15.701Z,62.70
2019-04-04T00:50:45.564Z,62.70
2019-04-04T00:53:15.380Z,62.70
2019-04-04T00:55:46.934Z,62.70
2019-04-04T00:58:16.695Z,62.70
2019-04-04T01:00:46.550Z,62.80
2019-04-04T01:03:16.382Z,63.00
2019-04-04T01:05:46.308Z,62.80
2019-04-04T01:08:16.155Z,62.90
2019-04-04T01:10:46.012Z,62.80
2019-04-04T01:13:15.858Z,62.90
2019-04-04T01:15:47.736Z,62.80
2019-04-04T01:18:17.536Z,62.80
2019-04-04T01:20:50.431Z,62.90
2019-04-04T01:23:18.861Z,63.00
2019-04-04T01:25:48.806Z,63.00
2019-04-04T01:28:18.639Z,63.10
2019-04-04T01:30:48.475Z,63.10
2019-04-04T01:33:19.958Z,63.10
2019-04-04T01:35:49.887Z,63.20
2019-04-04T01:38:19.735Z,63.30
2019-04-04T01:40:49.584Z,63.50
2019-04-04T01:43:19.383Z,63.50
2019-04-04T01:45:49.277Z,63.70
2019-04-04T01:48:19.359Z,63.60
2019-04-04T01:50:49.265Z,63.70
2019-04-04T01:53:19.125Z,63.80
2019-04-04T01:55:49.052Z,63.90
2019-04-04T01:58:19.015Z,64.00
2019-04-04T02:00:48.880Z,64.00
2019-04-04T02:03:18.733Z,64.00
2019-04-04T02:05:48.636Z,63.90
2019-04-04T02:08:18.434Z,63.90
2019-04-04T02:10:48.370Z,63.90
2019-04-04T02:13:18.097Z,63.80
2019-04-04T02:15:47.946Z,63.90
2019-04-04T02:18:17.727Z,63.90
2019-04-04T02:20:47.658Z,63.90
2019-04-04T02:23:17.500Z,63.90
2019-04-04T02:25:48.230Z,63.90
2019-04-04T02:28:18.007Z,63.80
2019-04-04T02:30:48.505Z,64.10
2019-04-04T02:33:19.466Z,63.90
2019-04-04T02:35:49.224Z,64.00
2019-04-04T02:38:18.995Z,64.00
2019-04-04T02:40:48.779Z,64.90
2019-04-04T02:43:18.619Z,64.10
2019-04-04T02:45:48.527Z,64.20
2019-04-04T02:48:18.331Z,64.30
2019-04-04T02:50:49.663Z,64.10
2019-04-04T02:53:20.506Z,64.10
2019-04-04T02:55:50.519Z,64.10
2019-04-04T02:58:20.387Z,64.20
2019-04-04T03:00:50.319Z,64.30
2019-04-04T03:03:20.167Z,64.30
2019-04-04T03:05:51.920Z,64.30
2019-04-04T03:08:21.517Z,64.30
2019-04-04T03:10:51.452Z,64.40
2019-04-04T03:13:22.328Z,64.30
2019-04-04T03:15:52.060Z,64.40
2019-04-04T03:18:21.883Z,64.40
2019-04-04T03:20:51.629Z,64.40
2019-04-04T03:23:21.486Z,64.30
2019-04-04T03:25:52.287Z,64.40
2019-04-04T03:28:26.188Z,64.50
2019-04-04T03:31:02.311Z,64.70
2019-04-04T03:33:31.332Z,64.50
2019-04-04T03:36:01.323Z,64.50
2019-04-04T03:38:31.311Z,64.60
2019-04-04T03:41:01.151Z,64.50
2019-04-04T03:43:30.879Z,64.40
2019-04-04T03:46:01.652Z,64.40
2019-04-04T03:48:31.655Z,64.40
2019-04-04T03:51:04.782Z,64.40
2019-04-04T03:53:32.933Z,64.50
2019-04-04T03:56:03.865Z,64.60
2019-04-04T03:58:33.652Z,64.70
2019-04-04T04:01:03.422Z,65.70
2019-04-04T04:03:33.216Z,64.90
2019-04-04T04:06:08.308Z,64.90
2019-04-04T04:08:36.130Z,65.10
2019-04-04T04:11:06.162Z,65.20
2019-04-04T04:13:35.919Z,65.10
2019-04-04T04:16:05.752Z,65.30
2019-04-04T04:18:35.536Z,65.40
2019-04-04T04:21:09.783Z,65.40
2019-04-04T04:23:36.789Z,65.50
2019-04-04T04:26:09.476Z,65.70
2019-04-04T04:28:38.055Z,65.70
2019-04-04T04:31:07.916Z,65.70
2019-04-04T04:33:37.648Z,65.60
2019-04-04T04:36:09.692Z,65.60
2019-04-04T04:38:38.997Z,65.60
2019-04-04T04:41:08.817Z,65.60
2019-04-04T04:43:38.590Z,65.60
2019-04-04T04:46:08.281Z,65.60
2019-04-04T04:48:38.116Z,65.70
2019-04-04T04:51:11.508Z,66.40
2019-04-04T04:53:39.259Z,65.60
2019-04-04T04:56:09.073Z,65.60
2019-04-04T04:58:41.870Z,65.50
2019-04-04T05:01:10.358Z,65.40
2019-04-04T05:03:40.196Z,65.40
2019-04-04T05:06:10.056Z,65.40
2019-04-04T05:08:41.029Z,65.50
2019-04-04T05:11:14.287Z,65.40
2019-04-04T05:13:42.848Z,65.50
2019-04-04T05:16:12.703Z,65.40
2019-04-04T05:18:42.552Z,65.40
2019-04-04T05:21:24.154Z,65.40
2019-04-04T05:23:44.921Z,65.40
2019-04-04T05:26:15.223Z,65.40
2019-04-04T05:28:45.084Z,65.40
2019-04-04T05:31:16.142Z,65.50
2019-04-04T05:33:46.186Z,65.60
2019-04-04T05:36:15.932Z,65.70
2019-04-04T05:38:47.277Z,65.90
2019-04-04T05:41:18.208Z,66.00
2019-04-04T05:43:48.018Z,66.10
2019-04-04T05:46:18.974Z,66.20
2019-04-04T05:48:49.255Z,66.20
2019-04-04T05:51:18.996Z,66.20
2019-04-04T05:53:48.783Z,66.20
2019-04-04T05:56:18.628Z,66.20
2019-04-04T05:58:48.440Z,66.20
2019-04-04T06:01:20.306Z,66.20
2019-04-04T06:03:53.354Z,66.30
2019-04-04T06:06:23.199Z,66.20
2019-04-04T06:08:54.064Z,66.20
2019-04-04T06:11:23.953Z,66.30
2019-04-04T06:13:56.972Z,66.30
2019-04-04T06:16:26.647Z,66.10
2019-04-04T06:18:56.549Z,66.20
2019-04-04T06:21:26.364Z,66.30
2019-04-04T06:23:56.656Z,66.50
2019-04-04T06:26:26.531Z,66.70
2019-04-04T06:28:57.395Z,66.80
2019-04-04T06:31:30.613Z,67.10
2019-04-04T06:34:01.288Z,67.00
2019-04-04T06:36:31.016Z,67.10
2019-04-04T06:39:00.859Z,67.10
2019-04-04T06:41:50.029Z,67.10
2019-04-04T06:44:19.827Z,67.10
2019-04-04T06:46:51.328Z,67.20
2019-04-04T06:49:21.170Z,67.30
2019-04-04T06:51:52.056Z,67.30
2019-04-04T06:54:25.053Z,67.40
2019-04-04T06:56:55.146Z,67.40
2019-04-04T06:59:26.079Z,67.50
2019-04-04T07:01:55.825Z,67.70
2019-04-04T07:04:25.640Z,67.80
2019-04-04T07:06:55.401Z,67.90
2019-04-04T07:09:25.251Z,68.40
2019-04-04T07:11:55.000Z,68.20
2019-04-04T07:14:24.891Z,68.20
2019-04-04T07:16:54.715Z,68.40
2019-04-04T07:19:24.552Z,68.50
2019-04-04T07:21:54.396Z,68.50
2019-04-04T07:24:24.215Z,68.50
2019-04-04T07:26:54.133Z,68.60
2019-04-04T07:29:25.350Z,68.70
2019-04-04T07:31:55.418Z,68.70
2019-04-04T07:34:25.220Z,69.60
2019-04-04T07:36:55.042Z,68.80
2019-04-04T07:39:24.845Z,68.90
2019-04-04T07:41:54.618Z,69.00
2019-04-04T07:44:24.455Z,69.10
2019-04-04T07:46:55.189Z,70.00
2019-04-04T07:49:25.056Z,69.30
2019-04-04T07:51:54.826Z,69.40
2019-04-04T07:54:24.596Z,69.40
2019-04-04T07:56:54.427Z,69.60
2019-04-04T07:59:24.225Z,69.60
2019-04-04T08:01:53.990Z,69.80
2019-04-04T08:04:23.722Z,69.90
2019-04-04T08:06:53.530Z,70.30
2019-04-04T08:09:26.089Z,70.00
2019-04-04T08:11:54.945Z,70.20
2019-04-04T08:14:24.745Z,70.40
2019-04-04T08:16:56.668Z,70.60
2019-04-04T08:19:26.507Z,70.60
2019-04-04T08:21:56.369Z,71.00
2019-04-04T08:24:28.002Z,71.00
2019-04-04T08:26:57.914Z,71.10
2019-04-04T08:29:28.671Z,71.30
2019-04-04T08:31:58.507Z,71.40
2019-04-04T08:34:28.344Z,71.50
2019-04-04T08:36:59.703Z,71.60
2019-04-04T08:39:29.586Z,71.70
2019-04-04T08:41:59.580Z,71.70
2019-04-04T08:44:29.435Z,71.80
2019-04-04T08:46:59.219Z,71.80
2019-04-04T08:49:29.059Z,71.90
2019-04-04T08:51:58.957Z,71.90
2019-04-04T08:54:28.828Z,72.10
2019-04-04T08:56:58.701Z,72.10
2019-04-04T08:59:28.578Z,72.10
2019-04-04T09:01:58.317Z,72.10
2019-04-04T09:04:28.152Z,72.10
2019-04-04T09:06:57.995Z,72.10
2019-04-04T09:09:27.890Z,72.10
2019-04-04T09:11:57.690Z,72.10
2019-04-04T09:14:28.536Z,72.00
2019-04-04T09:16:59.384Z,72.00
2019-04-04T09:19:29.119Z,71.90
2019-04-04T09:21:59.025Z,71.90
2019-04-04T09:24:28.852Z,71.80
2019-04-04T09:26:58.787Z,71.50
2019-04-04T09:29:28.588Z,71.40
2019-04-04T09:31:58.361Z,71.30
2019-04-04T09:34:28.158Z,71.10
2019-04-04T09:36:58.042Z,70.90
2019-04-04T09:39:27.763Z,70.70
2019-04-04T09:41:57.621Z,70.50
2019-04-04T09:44:27.397Z,70.30
2019-04-04T09:47:05.297Z,70.10
2019-04-04T09:49:28.647Z,69.90
2019-04-04T09:51:58.402Z,69.80
2019-04-04T09:54:28.307Z,70.40
2019-04-04T09:57:01.204Z,69.40
2019-04-04T09:59:30.981Z,69.30
2019-04-04T10:02:00.767Z,69.10
2019-04-04T10:04:30.645Z,68.90
2019-04-04T10:07:00.462Z,68.70
2019-04-04T10:09:30.210Z,68.60
2019-04-04T10:12:00.004Z,68.40
2019-04-04T10:14:29.817Z,68.20
2019-04-04T10:16:59.815Z,68.10
2019-04-04T10:19:29.600Z,67.90
2019-04-04T10:22:00.475Z,67.80
2019-04-04T10:24:30.270Z,67.50
2019-04-04T10:27:00.270Z,67.50
2019-04-04T10:29:32.992Z,67.30
2019-04-04T10:32:02.581Z,67.10
2019-04-04T10:34:32.296Z,67.00
2019-04-04T10:37:02.179Z,66.80
2019-04-04T10:39:32.871Z,66.60
2019-04-04T10:42:02.894Z,66.40
2019-04-04T10:44:32.624Z,66.30
2019-04-04T10:47:02.492Z,66.20
2019-04-04T10:49:32.442Z,66.20
2019-04-04T10:52:02.296Z,66.00
2019-04-04T10:54:32.096Z,65.90
2019-04-04T10:57:01.991Z,65.80
2019-04-04T10:59:31.717Z,65.70
2019-04-04T11:02:01.558Z,65.50
2019-04-04T11:04:31.267Z,65.40
2019-04-04T11:07:01.123Z,65.30
2019-04-04T11:09:41.335Z,66.00
2019-04-04T11:12:03.928Z,65.10
2019-04-04T11:14:33.848Z,64.90
2019-04-04T11:17:03.767Z,64.80
2019-04-04T11:19:33.559Z,64.60
2019-04-04T11:22:03.445Z,64.50
2019-04-04T11:24:33.207Z,65.10
2019-04-04T11:27:03.060Z,64.30
2019-04-04T11:29:32.892Z,64.10
2019-04-04T11:32:02.908Z,64.10
2019-04-04T11:34:32.633Z,64.00
2019-04-04T11:37:02.426Z,64.00
2019-04-04T11:39:32.210Z,63.80
2019-04-04T11:42:02.092Z,64.50
2019-04-04T11:44:31.865Z,63.60
2019-04-04T11:47:01.638Z,63.50
2019-04-04T11:49:31.466Z,63.50
2019-04-04T11:52:01.236Z,63.20
2019-04-04T11:54:31.123Z,63.20
2019-04-04T11:57:01.855Z,63.00
2019-04-04T11:59:31.648Z,62.90
2019-04-04T12:02:01.612Z,63.00
2019-04-04T12:04:31.464Z,63.00
2019-04-04T12:07:01.180Z,63.00
2019-04-04T12:09:30.956Z,62.90
2019-04-04T12:12:00.707Z,62.70
2019-04-04T12:14:30.443Z,62.50
2019-04-04T12:17:00.288Z,62.40
2019-04-04T12:19:30.899Z,62.40
2019-04-04T12:22:00.628Z,62.20
2019-04-04T12:24:30.473Z,61.90
2019-04-04T12:27:01.231Z,61.70
2019-04-04T12:29:32.084Z,61.50
2019-04-04T12:32:01.870Z,61.40
2019-04-04T12:34:31.718Z,61.20
2019-04-04T12:37:01.551Z,60.80
2019-04-04T12:39:31.323Z,60.60
2019-04-04T12:42:01.093Z,60.40
2019-04-04T12:44:30.816Z,60.00
2019-04-04T12:47:00.676Z,59.80
2019-04-04T12:49:30.506Z,59.60
2019-04-04T12:52:00.311Z,59.60
2019-04-04T12:54:30.025Z,59.50
2019-04-04T12:56:59.931Z,59.20
2019-04-04T12:59:29.770Z,59.10
2019-04-04T13:01:59.575Z,58.90
2019-04-04T13:04:31.763Z,58.80
2019-04-04T13:07:00.859Z,58.60
2019-04-04T13:09:30.733Z,58.50
2019-04-04T13:12:00.462Z,58.20
2019-04-04T13:14:30.366Z,58.00
2019-04-04T13:17:00.213Z,57.70
2019-04-04T13:19:30.054Z,57.60
2019-04-04T13:21:59.859Z,57.50
2019-04-04T13:24:29.658Z,57.50
2019-04-04T13:26:59.452Z,57.40
2019-04-04T13:29:29.314Z,57.30
2019-04-04T13:31:59.101Z,57.30
2019-04-04T13:34:28.952Z,57.10
2019-04-04T13:36:58.905Z,57.10
2019-04-04T13:39:28.779Z,57.80
2019-04-04T13:41:58.591Z,57.00
2019-04-04T13:44:28.376Z,57.00
2019-04-04T13:46:58.588Z,56.80
2019-04-04T13:49:28.444Z,56.70
2019-04-04T13:51:58.285Z,56.60
2019-04-04T13:54:28.143Z,56.60
2019-04-04T13:56:57.939Z,56.40
2019-04-04T13:59:28.483Z,56.30
2019-04-04T14:01:58.283Z,56.30
2019-04-04T14:04:28.078Z,56.30
2019-04-04T14:07:02.469Z,56.20
2019-04-04T14:09:31.867Z,56.10
2019-04-04T14:12:01.603Z,56.00
2019-04-04T14:14:31.390Z,56.00
2019-04-04T14:17:01.285Z,55.80
2019-04-04T14:19:31.630Z,55.60
2019-04-04T14:22:01.632Z,55.50
2019-04-04T14:24:31.356Z,55.40
2019-04-04T14:27:01.175Z,55.30
2019-04-04T14:29:30.997Z,55.10
2019-04-04T14:32:01.779Z,54.80
2019-04-04T14:34:31.629Z,54.80
2019-04-04T14:37:01.475Z,54.70
2019-04-04T14:39:31.403Z,54.70
2019-04-04T14:42:01.156Z,54.70
2019-04-04T14:44:30.969Z,54.70
2019-04-04T14:47:00.773Z,54.60
2019-04-04T14:49:30.611Z,54.40
2019-04-04T14:52:00.407Z,54.40
2019-04-04T14:54:30.247Z,54.20
2019-04-04T14:57:00.197Z,54.20
2019-04-04T14:59:30.062Z,54.10
2019-04-04T15:01:59.905Z,54.10
2019-04-04T15:04:29.740Z,53.90
2019-04-04T15:06:59.623Z,53.80
2019-04-04T15:09:29.456Z,53.70
2019-04-04T15:11:59.257Z,53.70
2019-04-04T15:14:28.963Z,53.60
2019-04-04T15:16:58.879Z,53.50
2019-04-04T15:19:28.731Z,53.40
2019-04-04T15:21:58.575Z,53.50
2019-04-04T15:24:28.374Z,54.10
2019-04-04T15:26:58.222Z,53.10
2019-04-04T15:29:28.058Z,53.00
2019-04-04T15:31:57.808Z,52.90
2019-04-04T15:34:27.559Z,52.80
2019-04-04T15:36:57.378Z,52.70
2019-04-04T15:39:27.176Z,52.70
2019-04-04T15:41:56.975Z,52.60
2019-04-04T15:44:26.854Z,52.40
2019-04-04T15:46:57.629Z,52.30
2019-04-04T15:49:27.469Z,52.20
2019-04-04T15:51:59.491Z,52.20
2019-04-04T15:54:28.657Z,52.10
2019-04-04T15:56:58.576Z,52.10
2019-04-04T15:59:28.396Z,52.10
2019-04-04T16:01:58.154Z,52.50
2019-04-04T16:04:27.959Z,51.90
2019-04-04T16:06:57.773Z,51.60
2019-04-04T16:09:27.479Z,51.20
2019-04-04T16:11:57.351Z,50.50
2019-04-04T16:14:27.134Z,50.00
2019-04-04T16:16:57.056Z,49.60
2019-04-04T16:19:26.888Z,49.40
2019-04-04T16:21:56.719Z,49.40
2019-04-04T16:24:26.507Z,49.40
2019-04-04T16:26:56.335Z,49.50
2019-04-04T16:29:26.060Z,49.40
2019-04-04T16:31:55.901Z,49.30
2019-04-04T16:34:25.535Z,49.30
2019-04-04T16:36:55.406Z,49.30
2019-04-04T16:39:25.228Z,49.50
2019-04-04T16:42:01.984Z,50.30
2019-04-04T16:44:37.059Z,50.00
2019-04-04T16:47:02.791Z,50.00
2019-04-04T16:49:32.695Z,50.00
2019-04-04T16:52:07.268Z,50.10
2019-04-04T16:54:48.581Z,50.10
2019-04-04T16:57:24.473Z,50.40
2019-04-04T17:00:01.941Z,50.30
2019-04-04T17:02:34.354Z,50.20
2019-04-04T17:05:04.772Z,50.30
2019-04-04T17:07:42.159Z,50.40
2019-04-04T17:10:14.027Z,50.30
2019-04-04T17:12:43.859Z,50.40
2019-04-04T17:15:15.241Z,50.40
2019-04-04T17:17:45.093Z,50.50
2019-04-04T17:23:25.060Z,50.60
2019-04-04T17:25:57.492Z,50.60
2019-04-04T17:28:31.941Z,50.60
2019-04-04T17:31:01.695Z,50.70
2019-04-04T17:33:35.737Z,50.70
2019-04-04T17:37:00.728Z,51.70
2019-04-04T17:39:30.642Z,51.10
2019-04-04T17:42:00.745Z,51.10
2019-04-04T17:44:39.768Z,51.70
2019-04-04T17:47:10.113Z,51.20
2019-04-04T17:49:42.004Z,51.40
2019-04-04T17:52:12.759Z,51.30
2019-04-04T17:54:52.168Z,51.50
2019-04-04T17:57:25.639Z,51.50
2019-04-04T17:59:55.439Z,51.80
2019-04-04T18:02:25.312Z,51.80
2019-04-04T18:04:55.124Z,51.80
2019-04-04T18:07:26.859Z,52.60
2019-04-04T18:09:56.663Z,52.00
2019-04-04T18:12:26.503Z,52.00
2019-04-04T18:14:56.699Z,52.20
2019-04-04T18:17:26.886Z,52.20
2019-04-04T18:19:56.670Z,52.20
2019-04-04T18:22:26.462Z,52.30
2019-04-04T18:24:56.369Z,52.40
2019-04-04T18:27:26.206Z,52.40
2019-04-04T18:29:58.490Z,52.50
2019-04-04T18:32:28.279Z,52.60
2019-04-04T18:34:58.139Z,52.70
2019-04-04T18:38:04.687Z,52.80
2019-04-04T18:40:34.685Z,52.80
2019-04-04T18:43:09.089Z,53.60
2019-04-04T18:45:35.863Z,52.90
2019-04-04T18:48:56.884Z,52.80
2019-04-04T18:51:32.952Z,52.90
2019-04-04T18:57:16.398Z,53.10
2019-04-04T18:59:49.383Z,53.40
2019-04-04T19:02:19.184Z,53.20
2019-04-04T19:04:49.088Z,53.30
2019-04-04T19:07:24.087Z,53.20
2019-04-04T19:09:54.891Z,53.20
2019-04-04T19:12:24.833Z,53.30
2019-04-04T19:14:54.589Z,53.10
2019-04-04T19:17:25.484Z,53.10
2019-04-04T19:20:16.311Z,53.10
2019-04-04T19:23:06.296Z,53.20
2019-04-04T19:25:39.629Z,53.10
2019-04-04T19:28:09.399Z,53.10
2019-04-04T19:30:39.221Z,53.10
2019-04-04T19:33:09.016Z,53.20
2019-04-04T19:36:00.562Z,53.30
2019-04-04T19:38:30.338Z,53.40
2019-04-04T19:41:00.163Z,53.60
2019-04-04T19:43:29.949Z,53.70
2019-04-04T19:46:19.759Z,53.90
2019-04-04T19:48:49.601Z,53.80
2019-04-04T19:51:20.963Z,53.80
2019-04-04T19:53:51.755Z,53.70
2019-04-04T19:56:22.161Z,53.60
2019-04-04T19:58:52.017Z,53.70
2019-04-04T20:01:21.817Z,53.60
2019-04-04T20:03:53.177Z,53.60
2019-04-04T20:06:24.039Z,53.70
2019-04-04T20:08:53.894Z,54.50
2019-04-04T20:11:23.687Z,53.80
2019-04-04T20:13:53.546Z,53.80
2019-04-04T20:16:24.349Z,53.80
2019-04-04T20:18:54.157Z,53.80
2019-04-04T20:21:23.976Z,53.80
2019-04-04T20:23:53.864Z,53.90
2019-04-04T20:26:23.705Z,54.20
2019-04-04T20:28:53.546Z,54.00
2019-04-04T20:31:41.250Z,54.10
2019-04-04T20:34:10.985Z,54.10
2019-04-04T20:36:41.899Z,54.20
2019-04-04T20:39:11.580Z,54.20
2019-04-04T20:41:41.339Z,54.30
2019-04-04T20:44:11.179Z,54.30
2019-04-04T20:46:41.053Z,54.50
2019-04-04T20:49:10.791Z,54.50
2019-04-04T20:51:40.568Z,54.60
2019-04-04T20:54:10.434Z,54.60
2019-04-04T20:56:42.807Z,54.70
2019-04-04T20:59:12.665Z,54.70
2019-04-04T21:01:42.532Z,54.80
2019-04-04T21:04:12.294Z,54.90
2019-04-04T21:07:00.297Z,55.00
2019-04-04T21:09:30.059Z,55.00
2019-04-04T21:11:59.810Z,55.80
2019-04-04T21:14:29.672Z,55.10
2019-04-04T21:16:59.427Z,55.30
2019-04-04T21:19:29.194Z,55.30
2019-04-04T21:21:59.035Z,55.40
2019-04-04T21:24:28.756Z,55.40
2019-04-04T21:27:37.172Z,55.50
2019-04-04T21:30:08.841Z,55.50
2019-04-04T21:32:38.644Z,55.50
2019-04-04T21:35:08.566Z,55.60
2019-04-04T21:37:38.371Z,55.70
2019-04-04T21:40:08.192Z,55.70
2019-04-04T21:42:37.931Z,55.80
2019-04-04T21:45:10.389Z,55.80
2019-04-04T21:47:40.153Z,55.90
2019-04-04T21:50:10.152Z,56.00
2019-04-04T21:52:40.086Z,56.00
2019-04-04T21:55:09.955Z,56.20
2019-04-04T21:57:43.577Z,56.10
2019-04-04T22:00:14.228Z,56.30
2019-04-04T22:02:45.640Z,56.20
2019-04-04T22:05:15.461Z,56.40
2019-04-04T22:07:45.278Z,56.30
2019-04-04T22:10:15.207Z,57.00
2019-04-04T22:12:44.936Z,56.50
2019-04-04T22:15:15.265Z,56.60
2019-04-04T22:17:45.090Z,56.60
2019-04-04T22:20:15.573Z,56.70
2019-04-04T22:22:45.457Z,56.70
2019-04-04T22:25:15.328Z,56.80
2019-04-04T22:28:03.193Z,56.80
2019-04-04T22:30:34.520Z,56.80
2019-04-04T22:33:22.364Z,57.20
2019-04-04T22:35:52.273Z,57.00
2019-04-04T22:38:22.065Z,57.10
2019-04-04T22:40:51.895Z,57.20
2019-04-04T22:43:21.596Z,57.30
2019-04-04T22:45:53.524Z,57.40
2019-04-04T22:48:23.324Z,57.40
2019-04-04T22:50:53.201Z,57.50
2019-04-04T22:53:23.058Z,57.60
2019-04-04T22:55:53.898Z,57.70
2019-04-04T22:58:28.641Z,57.90
2019-04-04T23:00:55.198Z,57.90
2019-04-04T23:03:25.387Z,57.90
2019-04-04T23:05:55.235Z,58.00
2019-04-04T23:08:25.117Z,58.10
2019-04-04T23:10:54.934Z,58.20
2019-04-04T23:13:24.720Z,58.20
2019-04-04T23:15:54.616Z,58.30
2019-04-04T23:18:24.377Z,58.40
2019-04-04T23:20:54.181Z,58.50
2019-04-04T23:23:25.945Z,58.50
2019-04-04T23:26:00.075Z,58.60
2019-04-04T23:28:29.881Z,58.70
2019-04-04T23:30:59.802Z,58.80
2019-04-04T23:33:29.648Z,58.80
2019-04-04T23:35:59.553Z,58.90
2019-04-04T23:38:29.417Z,59.00
2019-04-04T23:40:59.377Z,58.90
2019-04-04T23:43:29.245Z,59.00
2019-04-04T23:45:59.276Z,59.00
2019-04-04T23:48:29.157Z,59.20
2019-04-04T23:50:59.071Z,59.10
2019-04-04T23:53:28.873Z,59.30
2019-04-04T23:55:59.734Z,59.30
2019-04-04T23:58:29.502Z,59.30
